Rolling Meadows, Illinois
Current Conditions -  °F | °C
As of 7:52 AM on Saturday 25 Oct 2014 (Local Time) from KPWK Reporting Station
Haze Haze  
Wind Chill: 57°   Ceiling: Unl
Heat Index: 57°   Visibility: 4mi
Dew Point: 53°   Wind: 3mph
Humidity: 87%   Direction: 300°WNW
Pressure: 29.92"   Gusts: NA
Location:  42.08°N, 88.03°W
Report Text: KPWK 251252Z 30003KT 4SM BR CLR 14/12 A2992 RMK AO2 SLP130 T01390117
Loading
Personal Weather Stations






























Interactive Weather Map
Tropical Storm Tracking
New forecast layout! Learn more

10-Day Weather Forecast

Advertisements
Track Severe Weather on mobile